sensor_id;sensor_type;location;lat;lon;timestamp;pressure;altitude;pressure_sealevel;temperature;humidity
8318;BME280;4196;48.926;8.964;2022-09-01T00:01:54;99272.03;;;13.67;100.00
8318;BME280;4196;48.926;8.964;2022-09-01T00:04:43;99271.22;;;13.61;100.00
8318;BME280;4196;48.926;8.964;2022-09-01T00:07:30;99261.81;;;13.49;100.00
8318;BME280;4196;48.926;8.964;2022-09-01T00:10:17;99247.22;;;13.36;100.00
8318;BME280;4196;48.926;8.964;2022-09-01T00:13:04;99278.25;;;13.52;100.00
8318;BME280;4196;48.926;8.964;2022-09-01T00:15:52;99262.81;;;13.36;100.00
8318;BME280;4196;48.926;8.964;2022-09-01T00:18:40;99256.84;;;13.27;100.00
8318;BME280;4196;48.926;8.964;2022-09-01T00:21:32;99280.13;;;13.41;100.00
8318;BME280;4196;48.926;8.964;2022-09-01T00:24:19;99282.72;;;13.40;100.00
8318;BME280;4196;48.926;8.964;2022-09-01T00:27:06;99209.50;;;12.92;100.00
8318;BME280;4196;48.926;8.964;2022-09-01T00:29:54;99249.19;;;13.09;100.00
8318;BME280;4196;48.926;8.964;2022-09-01T00:32:42;99238.03;;;13.01;100.00
8318;BME280;4196;48.926;8.964;2022-09-01T00:35:31;99256.13;;;13.12;100.00
8318;BME280;4196;48.926;8.964;2022-09-01T00:38:22;99236.31;;;13.00;100.00
8318;BME280;4196;48.926;8.964;2022-09-01T00:41:10;99253.56;;;13.07;100.00
8318;BME280;4196;48.926;8.964;2022-09-01T00:44:09;99254.44;;;13.08;100.00
8318;BME280;4196;48.926;8.964;2022-09-01T00:46:58;99275.06;;;13.21;100.00
8318;BME280;4196;48.926;8.964;2022-09-01T00:49:47;99242.34;;;13.02;100.00
8318;BME280;4196;48.926;8.964;2022-09-01T00:52:42;99238.00;;;12.99;100.00
8318;BME280;4196;48.926;8.964;2022-09-01T00:55:32;99257.03;;;13.06;100.00
8318;BME280;4196;48.926;8.964;2022-09-01T00:58:19;99195.00;;;12.66;100.00
8318;BME280;4196;48.926;8.964;2022-09-01T01:01:08;99268.28;;;13.08;100.00
8318;BME280;4196;48.926;8.964;2022-09-01T01:03:55;99233.00;;;12.82;100.00
8318;BME280;4196;48.926;8.964;2022-09-01T01:06:53;99248.56;;;12.84;100.00
8318;BME280;4196;48.926;8.964;2022-09-01T01:09:47;99236.53;;;12.75;100.00
8318;BME280;4196;48.926;8.964;2022-09-01T01:12:34;99250.41;;;12.71;100.00
8318;BME280;4196;48.926;8.964;2022-09-01T01:15:25;99262.47;;;12.78;100.00
8318;BME280;4196;48.926;8.964;2022-09-01T01:18:13;99273.69;;;12.85;100.00
8318;BME280;4196;48.926;8.964;2022-09-01T01:21:05;99243.50;;;12.66;100.00
8318;BME280;4196;48.926;8.964;2022-09-01T01:27:12;99234.94;;;12.57;100.00
8318;BME280;4196;48.926;8.964;2022-09-01T01:30:00;99251.28;;;12.72;100.00
8318;BME280;4196;48.926;8.964;2022-09-01T01:32:49;99236.59;;;12.68;100.00
8318;BME280;4196;48.926;8.964;2022-09-01T01:35:37;99236.63;;;12.62;100.00
8318;BME280;4196;48.926;8.964;2022-09-01T01:38:24;99265.09;;;12.78;100.00
8318;BME280;4196;48.926;8.964;2022-09-01T01:41:14;99263.34;;;12.77;100.00
8318;BME280;4196;48.926;8.964;2022-09-01T01:44:03;99268.56;;;12.76;100.00
8318;BME280;4196;48.926;8.964;2022-09-01T01:46:52;99272.03;;;12.75;100.00
8318;BME280;4196;48.926;8.964;2022-09-01T01:49:40;99257.34;;;12.66;100.00
8318;BME280;4196;48.926;8.964;2022-09-01T01:52:29;99242.69;;;12.64;100.00
8318;BME280;4196;48.926;8.964;2022-09-01T01:55:16;99252.16;;;12.69;100.00
8318;BME280;4196;48.926;8.964;2022-09-01T01:58:04;99249.56;;;12.68;100.00
8318;BME280;4196;48.926;8.964;2022-09-01T02:00:54;99265.06;;;12.77;100.00
8318;BME280;4196;48.926;8.964;2022-09-01T02:03:41;99245.31;;;12.61;100.00
8318;BME280;4196;48.926;8.964;2022-09-01T02:06:33;99252.25;;;12.57;100.00
8318;BME280;4196;48.926;8.964;2022-09-01T02:09:20;99244.50;;;12.48;100.00
8318;BME280;4196;48.926;8.964;2022-09-01T02:12:08;99253.13;;;12.54;100.00
8318;BME280;4196;48.926;8.964;2022-09-01T02:14:55;99243.75;;;12.38;100.00
8318;BME280;4196;48.926;8.964;2022-09-01T02:17:46;99232.53;;;12.31;100.00
8318;BME280;4196;48.926;8.964;2022-09-01T02:20:32;99238.59;;;12.30;100.00
8318;BME280;4196;48.926;8.964;2022-09-01T02:23:20;99263.59;;;12.45;100.00
8318;BME280;4196;48.926;8.964;2022-09-01T02:26:09;99274.84;;;12.49;100.00
8318;BME280;4196;48.926;8.964;2022-09-01T02:29:06;99276.56;;;12.47;100.00
8318;BME280;4196;48.926;8.964;2022-09-01T02:31:58;99236.06;;;12.21;100.00
8318;BME280;4196;48.926;8.964;2022-09-01T02:34:45;99255.91;;;12.30;100.00
8318;BME280;4196;48.926;8.964;2022-09-01T02:37:37;99259.38;;;12.26;100.00
8318;BME280;4196;48.926;8.964;2022-09-01T02:40:24;99267.13;;;12.32;100.00
8318;BME280;4196;48.926;8.964;2022-09-01T02:43:13;99279.22;;;12.36;100.00
8318;BME280;4196;48.926;8.964;2022-09-01T02:46:01;99248.22;;;12.13;100.00
8318;BME280;4196;48.926;8.964;2022-09-01T02:48:48;99227.47;;;12.07;100.00
8318;BME280;4196;48.926;8.964;2022-09-01T02:51:36;99224.94;;;11.99;100.00
8318;BME280;4196;48.926;8.964;2022-09-01T02:54:24;99233.56;;;12.03;100.00
8318;BME280;4196;48.926;8.964;2022-09-01T02:57:11;99250.81;;;12.13;100.00
8318;BME280;4196;48.926;8.964;2022-09-01T02:59:57;99262.91;;;12.17;100.00
8318;BME280;4196;48.926;8.964;2022-09-01T03:02:49;99270.66;;;12.22;100.00
8318;BME280;4196;48.926;8.964;2022-09-01T03:05:38;99248.28;;;11.99;100.00
8318;BME280;4196;48.926;8.964;2022-09-01T03:08:25;99244.81;;;12.03;100.00
8318;BME280;4196;48.926;8.964;2022-09-01T03:11:13;99223.25;;;11.91;100.00
8318;BME280;4196;48.926;8.964;2022-09-01T03:14:01;99270.69;;;12.14;100.00
8318;BME280;4196;48.926;8.964;2022-09-01T03:16:47;99221.56;;;11.83;100.00
8318;BME280;4196;48.926;8.964;2022-09-01T03:19:35;99212.94;;;11.78;100.00
8318;BME280;4196;48.926;8.964;2022-09-01T03:22:30;99218.97;;;11.82;100.00
8318;BME280;4196;48.926;8.964;2022-09-01T03:25:17;99256.03;;;12.04;100.00
8318;BME280;4196;48.926;8.964;2022-09-01T03:28:07;99256.03;;;12.04;100.00
8318;BME280;4196;48.926;8.964;2022-09-01T03:30:57;99251.78;;;11.94;100.00
8318;BME280;4196;48.926;8.964;2022-09-01T03:33:44;99244.03;;;11.91;100.00
8318;BME280;4196;48.926;8.964;2022-09-01T03:36:39;99213.81;;;11.71;100.00
8318;BME280;4196;48.926;8.964;2022-09-01T03:39:40;99238.88;;;11.78;100.00
8318;BME280;4196;48.926;8.964;2022-09-01T03:42:27;99239.72;;;11.79;100.00
8318;BME280;4196;48.926;8.964;2022-09-01T03:45:15;99242.31;;;11.80;100.00
8318;BME280;4196;48.926;8.964;2022-09-01T03:48:07;99263.00;;;11.96;100.00
8318;BME280;4196;48.926;8.964;2022-09-01T03:50:56;99263.03;;;11.97;100.00
8318;BME280;4196;48.926;8.964;2022-09-01T03:53:50;99268.25;;;11.90;100.00
8318;BME280;4196;48.926;8.964;2022-09-01T03:56:40;99255.28;;;11.85;100.00
8318;BME280;4196;48.926;8.964;2022-09-01T03:59:33;99241.47;;;11.74;100.00
8318;BME280;4196;48.926;8.964;2022-09-01T04:02:20;99214.75;;;11.56;100.00
8318;BME280;4196;48.926;8.964;2022-09-01T04:05:10;99238.00;;;11.70;100.00
8318;BME280;4196;48.926;8.964;2022-09-01T04:07:58;99266.50;;;11.92;100.00
8318;BME280;4196;48.926;8.964;2022-09-01T04:10:51;99244.91;;;11.80;100.00
8318;BME280;4196;48.926;8.964;2022-09-01T04:13:41;99242.34;;;11.71;100.00
8318;BME280;4196;48.926;8.964;2022-09-01T04:16:30;99268.25;;;11.80;100.00
8318;BME280;4196;48.926;8.964;2022-09-01T04:19:36;99270.00;;;11.75;100.00
8318;BME280;4196;48.926;8.964;2022-09-01T04:22:25;99247.56;;;11.62;100.00
8318;BME280;4196;48.926;8.964;2022-09-01T04:25:17;99252.78;;;11.60;100.00
8318;BME280;4196;48.926;8.964;2022-09-01T04:28:08;99224.31;;;11.42;100.00
8318;BME280;4196;48.926;8.964;2022-09-01T04:31:12;99228.59;;;11.48;100.00
8318;BME280;4196;48.926;8.964;2022-09-01T04:34:06;99211.38;;;11.34;100.00
8318;BME280;4196;48.926;8.964;2022-09-01T04:37:00;99236.38;;;11.54;100.00
8318;BME280;4196;48.926;8.964;2022-09-01T04:39:49;99221.69;;;11.47;100.00
8318;BME280;4196;48.926;8.964;2022-09-01T04:42:41;99240.69;;;11.55;100.00
8318;BME280;4196;48.926;8.964;2022-09-01T04:45:28;99273.50;;;11.71;100.00
8318;BME280;4196;48.926;8.964;2022-09-01T04:48:15;99268.31;;;11.68;100.00
8318;BME280;4196;48.926;8.964;2022-09-01T04:51:06;99276.06;;;11.71;100.00
8318;BME280;4196;48.926;8.964;2022-09-01T04:54:10;99271.75;;;11.70;100.00
8318;BME280;4196;48.926;8.964;2022-09-01T04:57:04;99250.16;;;11.56;100.00
8318;BME280;4196;48.926;8.964;2022-09-01T04:59:55;99265.72;;;11.68;100.00
8318;BME280;4196;48.926;8.964;2022-09-01T05:02:45;99243.22;;;11.66;100.00
8318;BME280;4196;48.926;8.964;2022-09-01T05:05:41;99247.56;;;11.65;100.00
8318;BME280;4196;48.926;8.964;2022-09-01T05:08:28;99225.09;;;11.63;100.00
8318;BME280;4196;48.926;8.964;2022-09-01T05:11:19;99250.97;;;11.76;100.00
8318;BME280;4196;48.926;8.964;2022-09-01T05:14:07;99277.72;;;11.95;100.00
8318;BME280;4196;48.926;8.964;2022-09-01T05:16:57;99259.59;;;11.94;100.00
8318;BME280;4196;48.926;8.964;2022-09-01T05:19:47;99286.25;;;12.23;100.00
8318;BME280;4196;48.926;8.964;2022-09-01T05:22:35;99285.28;;;12.38;100.00
8318;BME280;4196;48.926;8.964;2022-09-01T05:25:25;99267.09;;;12.38;100.00
8318;BME280;4196;48.926;8.964;2022-09-01T05:28:15;99294.66;;;12.57;100.00
8318;BME280;4196;48.926;8.964;2022-09-01T05:31:03;99233.44;;;12.27;100.00
8318;BME280;4196;48.926;8.964;2022-09-01T05:33:51;99266.06;;;12.59;100.00
8318;BME280;4196;48.926;8.964;2022-09-01T05:36:43;99290.13;;;12.87;100.00
8318;BME280;4196;48.926;8.964;2022-09-01T05:39:31;99298.63;;;13.03;100.00
8318;BME280;4196;48.926;8.964;2022-09-01T05:42:18;99284.63;;;13.18;100.00
8318;BME280;4196;48.926;8.964;2022-09-01T05:45:07;99265.56;;;13.17;100.00
8318;BME280;4196;48.926;8.964;2022-09-01T05:47:53;99281.81;;;13.45;100.00
8318;BME280;4196;48.926;8.964;2022-09-01T05:50:40;99269.59;;;13.52;100.00
8318;BME280;4196;48.926;8.964;2022-09-01T05:53:32;99272.19;;;13.52;100.00
8318;BME280;4196;48.926;8.964;2022-09-01T05:56:19;99286.66;;;13.76;100.00
8318;BME280;4196;48.926;8.964;2022-09-01T05:59:06;99295.09;;;13.95;100.00
8318;BME280;4196;48.926;8.964;2022-09-01T06:02:13;99250.94;;;13.89;100.00
8318;BME280;4196;48.926;8.964;2022-09-01T06:05:00;99268.78;;;14.16;100.00
8318;BME280;4196;48.926;8.964;2022-09-01T06:07:50;99265.91;;;14.35;100.00
8318;BME280;4196;48.926;8.964;2022-09-01T06:10:40;99224.47;;;14.19;100.00
8318;BME280;4196;48.926;8.964;2022-09-01T06:13:26;99249.22;;;14.46;100.00
8318;BME280;4196;48.926;8.964;2022-09-01T06:16:15;99282.59;;;14.82;100.00
8318;BME280;4196;48.926;8.964;2022-09-01T06:19:02;99275.47;;;14.93;100.00
8318;BME280;4196;48.926;8.964;2022-09-01T06:21:49;99263.00;;;15.10;100.00
8318;BME280;4196;48.926;8.964;2022-09-01T06:24:37;99283.41;;;15.36;100.00
8318;BME280;4196;48.926;8.964;2022-09-01T06:27:25;99237.53;;;15.23;100.00
8318;BME280;4196;48.926;8.964;2022-09-01T06:30:13;99250.94;;;15.51;100.00
8318;BME280;4196;48.926;8.964;2022-09-01T06:33:13;99248.97;;;15.62;100.00
8318;BME280;4196;48.926;8.964;2022-09-01T06:36:05;99266.09;;;15.77;100.00
8318;BME280;4196;48.926;8.964;2022-09-01T06:38:54;99253.28;;;15.66;100.00
8318;BME280;4196;48.926;8.964;2022-09-01T06:41:41;99281.41;;;15.96;100.00
8318;BME280;4196;48.926;8.964;2022-09-01T06:44:29;99241.06;;;15.68;100.00
8318;BME280;4196;48.926;8.964;2022-09-01T06:47:22;99280.31;;;16.04;100.00
8318;BME280;4196;48.926;8.964;2022-09-01T06:50:11;99275.31;;;15.95;100.00
8318;BME280;4196;48.926;8.964;2022-09-01T06:53:20;99278.78;;;15.94;100.00
8318;BME280;4196;48.926;8.964;2022-09-01T06:56:27;99268.13;;;16.06;100.00
8318;BME280;4196;48.926;8.964;2022-09-01T06:59:19;99285.22;;;16.19;100.00
8318;BME280;4196;48.926;8.964;2022-09-01T07:02:07;99275.66;;;16.20;100.00
8318;BME280;4196;48.926;8.964;2022-09-01T07:05:20;99278.91;;;16.30;100.00
8318;BME280;4196;48.926;8.964;2022-09-01T07:08:27;99254.09;;;16.10;100.00
8318;BME280;4196;48.926;8.964;2022-09-01T07:11:36;99269.25;;;16.33;100.00
8318;BME280;4196;48.926;8.964;2022-09-01T07:14:44;99273.25;;;16.48;100.00
8318;BME280;4196;48.926;8.964;2022-09-01T07:17:56;99298.06;;;16.67;100.00
8318;BME280;4196;48.926;8.964;2022-09-01T07:20:43;99277.16;;;16.67;100.00
8318;BME280;4196;48.926;8.964;2022-09-01T07:23:54;99285.91;;;16.66;100.00
8318;BME280;4196;48.926;8.964;2022-09-01T07:27:18;99295.03;;;16.86;100.00
8318;BME280;4196;48.926;8.964;2022-09-01T07:30:11;99293.13;;;16.94;100.00
8318;BME280;4196;48.926;8.964;2022-09-01T07:32:57;99279.72;;;17.06;100.00
8318;BME280;4196;48.926;8.964;2022-09-01T07:36:04;99260.28;;;17.17;100.00
8318;BME280;4196;48.926;8.964;2022-09-01T07:39:12;99305.56;;;17.53;100.00
8318;BME280;4196;48.926;8.964;2022-09-01T07:42:39;99287.03;;;17.60;100.00
8318;BME280;4196;48.926;8.964;2022-09-01T07:46:24;99301.53;;;18.03;100.00
8318;BME280;4196;48.926;8.964;2022-09-01T07:49:31;99292.44;;;18.17;100.00
8318;BME280;4196;48.926;8.964;2022-09-01T07:52:38;99281.41;;;18.62;99.76
8318;BME280;4196;48.926;8.964;2022-09-01T07:55:29;99256.59;;;18.73;99.75
8318;BME280;4196;48.926;8.964;2022-09-01T07:58:21;99300.22;;;19.29;100.00
8318;BME280;4196;48.926;8.964;2022-09-01T08:01:18;99286.44;;;19.47;99.36
8318;BME280;4196;48.926;8.964;2022-09-01T08:04:08;99298.41;;;20.05;93.87
8318;BME280;4196;48.926;8.964;2022-09-01T08:06:56;99251.00;;;20.08;87.74
8318;BME280;4196;48.926;8.964;2022-09-01T08:09:42;99292.25;;;20.29;86.02
8318;BME280;4196;48.926;8.964;2022-09-01T08:12:32;99308.41;;;20.42;86.36
8318;BME280;4196;48.926;8.964;2022-09-01T08:15:18;99294.06;;;20.27;88.08
8318;BME280;4196;48.926;8.964;2022-09-01T08:18:25;99278.28;;;20.27;85.26
8318;BME280;4196;48.926;8.964;2022-09-01T08:21:11;99299.56;;;20.43;85.06
8318;BME280;4196;48.926;8.964;2022-09-01T08:24:14;99303.97;;;20.42;83.74
8318;BME280;4196;48.926;8.964;2022-09-01T08:27:01;99322.69;;;20.58;83.64
8318;BME280;4196;48.926;8.964;2022-09-01T08:29:48;99282.69;;;20.26;90.23
8318;BME280;4196;48.926;8.964;2022-09-01T08:32:36;99318.34;;;20.57;88.86
8318;BME280;4196;48.926;8.964;2022-09-01T08:35:23;99277.19;;;20.56;84.21
8318;BME280;4196;48.926;8.964;2022-09-01T08:38:11;99284.94;;;20.81;77.92
8318;BME280;4196;48.926;8.964;2022-09-01T08:40:58;99313.81;;;21.05;76.95
8318;BME280;4196;48.926;8.964;2022-09-01T08:46:43;99280.03;;;20.72;79.00
8318;BME280;4196;48.926;8.964;2022-09-01T08:49:32;99292.03;;;20.79;75.89
8318;BME280;4196;48.926;8.964;2022-09-01T08:56:18;99302.41;;;21.04;76.51
8318;BME280;4196;48.926;8.964;2022-09-01T08:59:07;99319.16;;;21.23;75.85
8318;BME280;4196;48.926;8.964;2022-09-01T09:05:36;99321.84;;;21.44;73.31
8318;BME280;4196;48.926;8.964;2022-09-01T09:14:30;99325.06;;;21.71;70.12
8318;BME280;4196;48.926;8.964;2022-09-01T09:17:25;99299.22;;;21.18;69.98
8318;BME280;4196;48.926;8.964;2022-09-01T09:20:14;99306.94;;;21.01;68.77
8318;BME280;4196;48.926;8.964;2022-09-01T09:23:16;99330.81;;;21.18;70.18
8318;BME280;4196;48.926;8.964;2022-09-01T09:26:06;99298.81;;;21.07;70.71
8318;BME280;4196;48.926;8.964;2022-09-01T09:28:53;99312.91;;;21.26;68.25
8318;BME280;4196;48.926;8.964;2022-09-01T09:31:40;99316.47;;;21.25;72.57
8318;BME280;4196;48.926;8.964;2022-09-01T09:34:38;99325.16;;;21.27;70.54
8318;BME280;4196;48.926;8.964;2022-09-01T09:37:28;99297.63;;;21.14;70.16
8318;BME280;4196;48.926;8.964;2022-09-01T09:40:26;99325.72;;;21.35;70.83
8318;BME280;4196;48.926;8.964;2022-09-01T09:43:14;99281.56;;;21.20;71.73
8318;BME280;4196;48.926;8.964;2022-09-01T09:49:24;99304.59;;;21.37;70.08
8318;BME280;4196;48.926;8.964;2022-09-01T09:52:22;99267.50;;;21.21;72.61
8318;BME280;4196;48.926;8.964;2022-09-01T09:55:28;99300.81;;;21.63;70.59
8318;BME280;4196;48.926;8.964;2022-09-01T09:58:15;99275.41;;;21.41;71.31
8318;BME280;4196;48.926;8.964;2022-09-01T10:01:09;99280.25;;;21.30;71.55
8318;BME280;4196;48.926;8.964;2022-09-01T10:04:00;99308.72;;;21.42;70.05
8318;BME280;4196;48.926;8.964;2022-09-01T10:06:49;99306.34;;;20.94;71.03
8318;BME280;4196;48.926;8.964;2022-09-01T10:09:36;99314.44;;;21.10;70.95
8318;BME280;4196;48.926;8.964;2022-09-01T10:12:24;99291.41;;;20.94;73.26
8318;BME280;4196;48.926;8.964;2022-09-01T10:15:21;99283.19;;;21.02;74.43
8318;BME280;4196;48.926;8.964;2022-09-01T10:18:11;99274.72;;;21.16;73.19
8318;BME280;4196;48.926;8.964;2022-09-01T10:21:25;99300.69;;;21.66;71.10
8318;BME280;4196;48.926;8.964;2022-09-01T10:24:29;99300.13;;;21.78;69.06
8318;BME280;4196;48.926;8.964;2022-09-01T10:27:21;99288.28;;;22.07;68.39
8318;BME280;4196;48.926;8.964;2022-09-01T10:30:14;99301.44;;;22.47;70.12
8318;BME280;4196;48.926;8.964;2022-09-01T10:33:06;99297.34;;;22.58;65.98
8318;BME280;4196;48.926;8.964;2022-09-01T10:36:05;99286.22;;;22.52;61.99
8318;BME280;4196;48.926;8.964;2022-09-01T10:38:53;99274.84;;;22.32;62.38
8318;BME280;4196;48.926;8.964;2022-09-01T10:41:53;99306.91;;;22.61;62.57
8318;BME280;4196;48.926;8.964;2022-09-01T10:44:56;99259.72;;;22.53;67.76
8318;BME280;4196;48.926;8.964;2022-09-01T10:47:43;99292.09;;;22.95;64.53
8318;BME280;4196;48.926;8.964;2022-09-01T10:50:31;99289.13;;;23.01;59.05
8318;BME280;4196;48.926;8.964;2022-09-01T10:56:39;99302.81;;;23.09;58.48
8318;BME280;4196;48.926;8.964;2022-09-01T10:59:29;99257.81;;;23.10;57.44
8318;BME280;4196;48.926;8.964;2022-09-01T11:02:21;99280.34;;;23.18;62.24
8318;BME280;4196;48.926;8.964;2022-09-01T11:05:14;99280.06;;;23.24;60.37
8318;BME280;4196;48.926;8.964;2022-09-01T11:08:22;99280.72;;;23.45;58.20
8318;BME280;4196;48.926;8.964;2022-09-01T11:11:25;99284.44;;;23.58;60.75
8318;BME280;4196;48.926;8.964;2022-09-01T11:14:17;99251.84;;;23.24;58.19
8318;BME280;4196;48.926;8.964;2022-09-01T11:17:19;99277.28;;;23.60;57.03
8318;BME280;4196;48.926;8.964;2022-09-01T11:20:46;99272.94;;;23.42;61.89
8318;BME280;4196;48.926;8.964;2022-09-01T11:23:31;99261.06;;;23.33;60.87
8318;BME280;4196;48.926;8.964;2022-09-01T11:32:39;99227.91;;;23.27;56.23
8318;BME280;4196;48.926;8.964;2022-09-01T11:35:32;99249.66;;;23.15;57.88
8318;BME280;4196;48.926;8.964;2022-09-01T11:38:19;99222.38;;;22.97;60.12
8318;BME280;4196;48.926;8.964;2022-09-01T11:41:06;99255.72;;;23.00;55.67
8318;BME280;4196;48.926;8.964;2022-09-01T11:43:55;99261.16;;;22.97;57.17
8318;BME280;4196;48.926;8.964;2022-09-01T11:46:43;99213.88;;;22.56;57.10
8318;BME280;4196;48.926;8.964;2022-09-01T11:49:34;99195.38;;;22.38;56.85
8318;BME280;4196;48.926;8.964;2022-09-01T11:52:25;99234.31;;;22.33;60.34
8318;BME280;4196;48.926;8.964;2022-09-01T11:55:12;99245.72;;;22.34;61.42
8318;BME280;4196;48.926;8.964;2022-09-01T11:57:59;99221.75;;;22.38;60.00
8318;BME280;4196;48.926;8.964;2022-09-01T12:00:45;99224.38;;;22.38;57.72
8318;BME280;4196;48.926;8.964;2022-09-01T12:03:32;99240.41;;;22.53;57.69
8318;BME280;4196;48.926;8.964;2022-09-01T12:06:25;99246.22;;;22.42;58.91
8318;BME280;4196;48.926;8.964;2022-09-01T12:09:11;99247.56;;;22.51;59.57
8318;BME280;4196;48.926;8.964;2022-09-01T12:11:58;99234.00;;;22.58;57.37
8318;BME280;4196;48.926;8.964;2022-09-01T12:15:04;99212.91;;;22.76;61.63
8318;BME280;4196;48.926;8.964;2022-09-01T12:17:52;99230.56;;;23.27;59.08
8318;BME280;4196;48.926;8.964;2022-09-01T12:20:58;99230.25;;;23.67;58.94
8318;BME280;4196;48.926;8.964;2022-09-01T12:23:45;99203.25;;;23.60;58.94
8318;BME280;4196;48.926;8.964;2022-09-01T12:26:32;99216.97;;;23.68;56.56
8318;BME280;4196;48.926;8.964;2022-09-01T12:29:20;99217.50;;;23.91;53.85
8318;BME280;4196;48.926;8.964;2022-09-01T12:32:08;99180.13;;;23.81;57.50
8318;BME280;4196;48.926;8.964;2022-09-01T12:35:02;99227.75;;;24.28;54.18
8318;BME280;4196;48.926;8.964;2022-09-01T12:38:20;99218.22;;;24.42;56.53
8318;BME280;4196;48.926;8.964;2022-09-01T12:41:34;99217.50;;;24.54;56.74
8318;BME280;4196;48.926;8.964;2022-09-01T12:44:43;99204.53;;;24.49;51.63
8318;BME280;4196;48.926;8.964;2022-09-01T12:53:14;99195.59;;;25.26;51.94
8318;BME280;4196;48.926;8.964;2022-09-01T12:56:15;99200.25;;;25.37;47.96
8318;BME280;4196;48.926;8.964;2022-09-01T12:59:14;99189.72;;;25.36;46.79
8318;BME280;4196;48.926;8.964;2022-09-01T13:02:36;99200.03;;;25.54;47.61
8318;BME280;4196;48.926;8.964;2022-09-01T13:08:18;99197.09;;;25.88;48.25
8318;BME280;4196;48.926;8.964;2022-09-01T13:11:07;99196.13;;;26.03;46.83
8318;BME280;4196;48.926;8.964;2022-09-01T13:13:56;99175.13;;;26.00;47.49
8318;BME280;4196;48.926;8.964;2022-09-01T13:16:43;99193.25;;;26.20;47.48
8318;BME280;4196;48.926;8.964;2022-09-01T13:19:31;99191.56;;;26.19;45.91
8318;BME280;4196;48.926;8.964;2022-09-01T13:22:17;99147.13;;;25.53;46.55
8318;BME280;4196;48.926;8.964;2022-09-01T13:25:04;99143.22;;;25.59;50.09
8318;BME280;4196;48.926;8.964;2022-09-01T13:27:51;99168.59;;;25.91;51.14
8318;BME280;4196;48.926;8.964;2022-09-01T13:30:38;99180.91;;;25.78;45.84
8318;BME280;4196;48.926;8.964;2022-09-01T13:33:26;99169.94;;;25.13;46.82
8318;BME280;4196;48.926;8.964;2022-09-01T13:36:14;99184.38;;;24.77;46.63
8318;BME280;4196;48.926;8.964;2022-09-01T13:39:20;99136.97;;;24.12;47.06
8318;BME280;4196;48.926;8.964;2022-09-01T13:42:08;99163.91;;;24.03;51.26
8318;BME280;4196;48.926;8.964;2022-09-01T13:44:55;99144.91;;;23.80;50.62
8318;BME280;4196;48.926;8.964;2022-09-01T13:47:44;99150.59;;;23.89;48.73
8318;BME280;4196;48.926;8.964;2022-09-01T13:50:51;99153.94;;;23.76;51.28
8318;BME280;4196;48.926;8.964;2022-09-01T13:53:58;99159.66;;;23.84;51.19
8318;BME280;4196;48.926;8.964;2022-09-01T13:56:45;99148.91;;;23.88;53.58
8318;BME280;4196;48.926;8.964;2022-09-01T13:59:31;99162.53;;;24.11;51.12
8318;BME280;4196;48.926;8.964;2022-09-01T14:02:18;99149.41;;;24.10;54.29
8318;BME280;4196;48.926;8.964;2022-09-01T14:05:04;99142.72;;;24.34;51.14
8318;BME280;4196;48.926;8.964;2022-09-01T14:07:52;99116.75;;;24.41;52.83
8318;BME280;4196;48.926;8.964;2022-09-01T14:10:42;99160.59;;;24.61;52.79
8318;BME280;4196;48.926;8.964;2022-09-01T14:13:29;99110.72;;;24.23;51.07
8318;BME280;4196;48.926;8.964;2022-09-01T14:16:17;99168.34;;;24.18;51.38
8318;BME280;4196;48.926;8.964;2022-09-01T14:19:04;99134.81;;;23.71;52.69
8318;BME280;4196;48.926;8.964;2022-09-01T14:21:50;99144.63;;;23.69;52.79
8318;BME280;4196;48.926;8.964;2022-09-01T14:24:37;99140.31;;;23.51;55.05
8318;BME280;4196;48.926;8.964;2022-09-01T14:27:26;99152.03;;;23.29;53.28
8318;BME280;4196;48.926;8.964;2022-09-01T14:30:17;99096.56;;;22.96;55.56
8318;BME280;4196;48.926;8.964;2022-09-01T14:33:04;99128.41;;;23.10;55.01
8318;BME280;4196;48.926;8.964;2022-09-01T14:35:50;99128.34;;;22.95;54.18
8318;BME280;4196;48.926;8.964;2022-09-01T14:38:37;99141.41;;;22.98;53.16
8318;BME280;4196;48.926;8.964;2022-09-01T14:41:24;99139.66;;;22.97;56.46
8318;BME280;4196;48.926;8.964;2022-09-01T14:44:12;99131.19;;;22.90;55.53
8318;BME280;4196;48.926;8.964;2022-09-01T14:46:58;99135.16;;;23.16;53.27
8318;BME280;4196;48.926;8.964;2022-09-01T14:49:45;99140.59;;;23.46;54.19
8318;BME280;4196;48.926;8.964;2022-09-01T14:52:32;99107.06;;;23.47;51.97
8318;BME280;4196;48.926;8.964;2022-09-01T14:55:21;99120.56;;;23.74;54.61
8318;BME280;4196;48.926;8.964;2022-09-01T14:58:07;99110.66;;;23.93;52.16
8318;BME280;4196;48.926;8.964;2022-09-01T15:00:55;99120.53;;;24.21;53.15
8318;BME280;4196;48.926;8.964;2022-09-01T15:03:53;99122.66;;;24.30;52.73
8318;BME280;4196;48.926;8.964;2022-09-01T15:06:39;99113.22;;;24.56;46.99
8318;BME280;4196;48.926;8.964;2022-09-01T15:09:26;99109.06;;;24.37;50.15
8318;BME280;4196;48.926;8.964;2022-09-01T15:12:12;99060.53;;;24.22;48.58
8318;BME280;4196;48.926;8.964;2022-09-01T15:15:00;99110.94;;;24.50;50.15
8318;BME280;4196;48.926;8.964;2022-09-01T15:17:47;99085.78;;;24.27;49.00
8318;BME280;4196;48.926;8.964;2022-09-01T15:20:38;99089.00;;;24.02;48.07
8318;BME280;4196;48.926;8.964;2022-09-01T15:23:31;99103.34;;;23.98;48.63
8318;BME280;4196;48.926;8.964;2022-09-01T15:26:17;99092.41;;;23.89;53.24
8318;BME280;4196;48.926;8.964;2022-09-01T15:29:04;99084.41;;;23.90;52.02
8318;BME280;4196;48.926;8.964;2022-09-01T15:31:50;99090.56;;;23.91;52.15
8318;BME280;4196;48.926;8.964;2022-09-01T15:34:37;99116.84;;;23.94;50.39
8318;BME280;4196;48.926;8.964;2022-09-01T15:37:24;99105.06;;;23.83;52.12
8318;BME280;4196;48.926;8.964;2022-09-01T15:40:10;99105.81;;;23.85;50.72
8318;BME280;4196;48.926;8.964;2022-09-01T15:42:57;99068.06;;;23.68;51.10
8318;BME280;4196;48.926;8.964;2022-09-01T15:45:45;99067.03;;;23.70;48.52
8318;BME280;4196;48.926;8.964;2022-09-01T15:48:31;99095.84;;;23.91;49.53
8318;BME280;4196;48.926;8.964;2022-09-01T15:54:10;99097.72;;;23.57;49.96
8318;BME280;4196;48.926;8.964;2022-09-01T15:56:57;99058.28;;;23.21;49.65
8318;BME280;4196;48.926;8.964;2022-09-01T15:59:43;99072.63;;;23.32;49.27
8318;BME280;4196;48.926;8.964;2022-09-01T16:02:30;99084.56;;;23.39;49.44
8318;BME280;4196;48.926;8.964;2022-09-01T16:05:17;99062.31;;;23.28;49.80
8318;BME280;4196;48.926;8.964;2022-09-01T16:08:04;99094.28;;;23.55;50.94
8318;BME280;4196;48.926;8.964;2022-09-01T16:10:54;99064.25;;;23.56;51.32
8318;BME280;4196;48.926;8.964;2022-09-01T16:13:41;99088.16;;;24.02;49.31